sensor_id;sensor_type;location;lat;lon;timestamp;temperature;humidity
24035;DHT22;12242;50.952;4.678;2022-10-22T00:01:00;17.80;99.90
24035;DHT22;12242;50.952;4.678;2022-10-22T00:03:27;17.60;99.90
24035;DHT22;12242;50.952;4.678;2022-10-22T00:05:54;17.60;99.90
24035;DHT22;12242;50.952;4.678;2022-10-22T00:08:24;17.70;99.90
24035;DHT22;12242;50.952;4.678;2022-10-22T00:10:51;17.80;99.90
24035;DHT22;12242;50.952;4.678;2022-10-22T00:13:19;17.70;99.90
24035;DHT22;12242;50.952;4.678;2022-10-22T00:15:47;17.70;99.90
24035;DHT22;12242;50.952;4.678;2022-10-22T00:18:17;17.80;99.90
24035;DHT22;12242;50.952;4.678;2022-10-22T00:20:47;17.80;99.90
24035;DHT22;12242;50.952;4.678;2022-10-22T00:23:14;17.70;99.90
24035;DHT22;12242;50.952;4.678;2022-10-22T00:25:42;17.60;99.90
24035;DHT22;12242;50.952;4.678;2022-10-22T00:28:09;17.70;99.90
24035;DHT22;12242;50.952;4.678;2022-10-22T00:30:37;17.80;99.90
24035;DHT22;12242;50.952;4.678;2022-10-22T00:33:09;17.60;99.90
24035;DHT22;12242;50.952;4.678;2022-10-22T00:35:37;17.50;99.90
24035;DHT22;12242;50.952;4.678;2022-10-22T00:38:04;17.50;99.90
24035;DHT22;12242;50.952;4.678;2022-10-22T00:40:32;17.50;99.90
24035;DHT22;12242;50.952;4.678;2022-10-22T00:43:01;17.40;99.90
24035;DHT22;12242;50.952;4.678;2022-10-22T00:45:29;17.50;99.90
24035;DHT22;12242;50.952;4.678;2022-10-22T00:48:03;17.50;99.90
24035;DHT22;12242;50.952;4.678;2022-10-22T00:50:45;17.50;99.90
24035;DHT22;12242;50.952;4.678;2022-10-22T00:53:38;17.50;99.90
24035;DHT22;12242;50.952;4.678;2022-10-22T00:56:06;17.40;99.90
24035;DHT22;12242;50.952;4.678;2022-10-22T00:58:42;17.40;99.90
24035;DHT22;12242;50.952;4.678;2022-10-22T01:01:13;17.50;99.90
24035;DHT22;12242;50.952;4.678;2022-10-22T01:03:43;17.60;99.90
24035;DHT22;12242;50.952;4.678;2022-10-22T01:06:17;17.60;99.90
24035;DHT22;12242;50.952;4.678;2022-10-22T01:09:11;17.60;99.90
24035;DHT22;12242;50.952;4.678;2022-10-22T01:17:17;17.70;99.90
24035;DHT22;12242;50.952;4.678;2022-10-22T01:25:31;17.60;99.90
24035;DHT22;12242;50.952;4.678;2022-10-22T01:30:44;17.60;99.90
24035;DHT22;12242;50.952;4.678;2022-10-22T01:33:14;17.60;99.90
24035;DHT22;12242;50.952;4.678;2022-10-22T01:35:44;17.60;99.90
24035;DHT22;12242;50.952;4.678;2022-10-22T01:38:14;17.50;99.90
24035;DHT22;12242;50.952;4.678;2022-10-22T01:40:45;17.50;99.90
24035;DHT22;12242;50.952;4.678;2022-10-22T01:43:13;17.50;99.90
24035;DHT22;12242;50.952;4.678;2022-10-22T01:45:57;17.50;99.90
24035;DHT22;12242;50.952;4.678;2022-10-22T01:57:04;17.60;99.90
24035;DHT22;12242;50.952;4.678;2022-10-22T02:02:46;17.40;99.90
24035;DHT22;12242;50.952;4.678;2022-10-22T02:05:26;17.40;99.90
24035;DHT22;12242;50.952;4.678;2022-10-22T02:08:00;17.40;99.90
24035;DHT22;12242;50.952;4.678;2022-10-22T02:10:29;17.50;99.90
24035;DHT22;12242;50.952;4.678;2022-10-22T02:12:58;17.60;99.90
24035;DHT22;12242;50.952;4.678;2022-10-22T02:15:32;17.50;99.90
24035;DHT22;12242;50.952;4.678;2022-10-22T02:18:01;17.60;99.90
24035;DHT22;12242;50.952;4.678;2022-10-22T02:20:31;17.60;99.90
24035;DHT22;12242;50.952;4.678;2022-10-22T02:22:59;17.60;99.90
24035;DHT22;12242;50.952;4.678;2022-10-22T02:25:29;17.70;99.90
24035;DHT22;12242;50.952;4.678;2022-10-22T02:28:36;17.60;99.90
24035;DHT22;12242;50.952;4.678;2022-10-22T02:31:14;17.70;99.90
24035;DHT22;12242;50.952;4.678;2022-10-22T02:33:45;17.60;99.90
24035;DHT22;12242;50.952;4.678;2022-10-22T02:36:14;17.50;99.90
24035;DHT22;12242;50.952;4.678;2022-10-22T02:38:42;17.50;99.90
24035;DHT22;12242;50.952;4.678;2022-10-22T02:41:11;17.40;99.90
24035;DHT22;12242;50.952;4.678;2022-10-22T02:43:44;17.30;99.90
24035;DHT22;12242;50.952;4.678;2022-10-22T02:46:17;17.30;99.90
24035;DHT22;12242;50.952;4.678;2022-10-22T02:48:44;17.20;99.90
24035;DHT22;12242;50.952;4.678;2022-10-22T02:51:11;17.30;99.90
24035;DHT22;12242;50.952;4.678;2022-10-22T02:53:39;17.30;99.90
24035;DHT22;12242;50.952;4.678;2022-10-22T02:56:07;17.20;99.90
24035;DHT22;12242;50.952;4.678;2022-10-22T02:58:35;17.20;99.90
24035;DHT22;12242;50.952;4.678;2022-10-22T03:01:02;17.20;99.90
24035;DHT22;12242;50.952;4.678;2022-10-22T03:03:32;17.10;99.90
24035;DHT22;12242;50.952;4.678;2022-10-22T03:06:00;17.10;99.90
24035;DHT22;12242;50.952;4.678;2022-10-22T03:08:27;17.10;99.90
24035;DHT22;12242;50.952;4.678;2022-10-22T03:10:59;17.10;99.90
24035;DHT22;12242;50.952;4.678;2022-10-22T03:13:26;17.10;99.90
24035;DHT22;12242;50.952;4.678;2022-10-22T03:15:54;17.00;99.90
24035;DHT22;12242;50.952;4.678;2022-10-22T03:18:21;17.00;99.90
24035;DHT22;12242;50.952;4.678;2022-10-22T03:20:49;17.00;99.90
24035;DHT22;12242;50.952;4.678;2022-10-22T03:23:18;17.00;99.90
24035;DHT22;12242;50.952;4.678;2022-10-22T03:25:47;16.90;99.90
24035;DHT22;12242;50.952;4.678;2022-10-22T03:28:16;17.00;99.90
24035;DHT22;12242;50.952;4.678;2022-10-22T03:30:48;17.00;99.90
24035;DHT22;12242;50.952;4.678;2022-10-22T03:33:15;17.00;99.90
24035;DHT22;12242;50.952;4.678;2022-10-22T03:35:44;16.90;99.90
24035;DHT22;12242;50.952;4.678;2022-10-22T03:38:13;16.80;99.90
24035;DHT22;12242;50.952;4.678;2022-10-22T03:40:42;16.80;99.90
24035;DHT22;12242;50.952;4.678;2022-10-22T03:43:10;16.80;99.90
24035;DHT22;12242;50.952;4.678;2022-10-22T03:45:37;16.80;99.90
24035;DHT22;12242;50.952;4.678;2022-10-22T03:48:09;16.80;99.90
24035;DHT22;12242;50.952;4.678;2022-10-22T03:50:39;16.80;99.90
24035;DHT22;12242;50.952;4.678;2022-10-22T03:53:06;16.80;99.90
24035;DHT22;12242;50.952;4.678;2022-10-22T03:55:39;16.90;99.90
24035;DHT22;12242;50.952;4.678;2022-10-22T03:58:07;16.90;99.90
24035;DHT22;12242;50.952;4.678;2022-10-22T04:00:34;16.90;99.90
24035;DHT22;12242;50.952;4.678;2022-10-22T04:03:02;16.90;99.90
24035;DHT22;12242;50.952;4.678;2022-10-22T04:05:31;16.80;99.90
24035;DHT22;12242;50.952;4.678;2022-10-22T04:07:59;16.80;99.90
24035;DHT22;12242;50.952;4.678;2022-10-22T04:10:26;16.90;99.90
24035;DHT22;12242;50.952;4.678;2022-10-22T04:12:56;16.90;99.90
24035;DHT22;12242;50.952;4.678;2022-10-22T04:15:23;16.80;99.90
24035;DHT22;12242;50.952;4.678;2022-10-22T04:17:55;16.80;99.90
24035;DHT22;12242;50.952;4.678;2022-10-22T04:20:22;16.80;99.90
24035;DHT22;12242;50.952;4.678;2022-10-22T04:22:55;16.90;99.90
24035;DHT22;12242;50.952;4.678;2022-10-22T04:25:24;16.90;99.90
24035;DHT22;12242;50.952;4.678;2022-10-22T04:27:52;17.00;99.90
24035;DHT22;12242;50.952;4.678;2022-10-22T04:30:21;17.00;99.90
24035;DHT22;12242;50.952;4.678;2022-10-22T04:32:48;16.90;99.90
24035;DHT22;12242;50.952;4.678;2022-10-22T04:35:16;16.90;99.90
24035;DHT22;12242;50.952;4.678;2022-10-22T04:37:46;16.90;99.90
24035;DHT22;12242;50.952;4.678;2022-10-22T04:40:14;16.90;99.90
24035;DHT22;12242;50.952;4.678;2022-10-22T04:42:43;16.80;99.90
24035;DHT22;12242;50.952;4.678;2022-10-22T04:45:11;16.80;99.90
24035;DHT22;12242;50.952;4.678;2022-10-22T04:47:41;16.80;99.90
24035;DHT22;12242;50.952;4.678;2022-10-22T04:50:09;16.80;99.90
24035;DHT22;12242;50.952;4.678;2022-10-22T04:52:39;16.70;99.90
24035;DHT22;12242;50.952;4.678;2022-10-22T04:55:09;16.70;99.90
24035;DHT22;12242;50.952;4.678;2022-10-22T04:57:38;16.70;99.90
24035;DHT22;12242;50.952;4.678;2022-10-22T05:00:06;16.60;99.90
24035;DHT22;12242;50.952;4.678;2022-10-22T05:02:36;16.60;99.90
24035;DHT22;12242;50.952;4.678;2022-10-22T05:05:06;16.60;99.90
24035;DHT22;12242;50.952;4.678;2022-10-22T05:07:35;16.60;99.90
24035;DHT22;12242;50.952;4.678;2022-10-22T05:10:05;16.60;99.90
24035;DHT22;12242;50.952;4.678;2022-10-22T05:12:34;16.60;99.90
24035;DHT22;12242;50.952;4.678;2022-10-22T05:15:01;16.60;99.90
24035;DHT22;12242;50.952;4.678;2022-10-22T05:17:29;16.60;99.90
24035;DHT22;12242;50.952;4.678;2022-10-22T05:19:56;16.70;99.90
24035;DHT22;12242;50.952;4.678;2022-10-22T05:22:24;16.70;99.90
24035;DHT22;12242;50.952;4.678;2022-10-22T05:24:51;16.70;99.90
24035;DHT22;12242;50.952;4.678;2022-10-22T05:27:20;16.70;99.90
24035;DHT22;12242;50.952;4.678;2022-10-22T05:29:48;16.80;99.90
24035;DHT22;12242;50.952;4.678;2022-10-22T05:32:18;16.80;99.90
24035;DHT22;12242;50.952;4.678;2022-10-22T05:34:45;16.90;99.90
24035;DHT22;12242;50.952;4.678;2022-10-22T05:37:12;16.80;99.90
24035;DHT22;12242;50.952;4.678;2022-10-22T05:39:44;16.90;99.90
24035;DHT22;12242;50.952;4.678;2022-10-22T05:42:11;16.90;99.90
24035;DHT22;12242;50.952;4.678;2022-10-22T05:44:39;17.00;99.90
24035;DHT22;12242;50.952;4.678;2022-10-22T05:47:06;17.00;99.90
24035;DHT22;12242;50.952;4.678;2022-10-22T05:49:34;17.00;99.90
24035;DHT22;12242;50.952;4.678;2022-10-22T05:52:01;17.10;99.90
24035;DHT22;12242;50.952;4.678;2022-10-22T05:54:29;17.10;99.90
24035;DHT22;12242;50.952;4.678;2022-10-22T05:56:56;17.10;99.90
24035;DHT22;12242;50.952;4.678;2022-10-22T05:59:25;17.10;99.90
24035;DHT22;12242;50.952;4.678;2022-10-22T06:01:53;17.10;99.90
24035;DHT22;12242;50.952;4.678;2022-10-22T06:04:20;17.10;99.90
24035;DHT22;12242;50.952;4.678;2022-10-22T06:06:49;17.10;99.90
24035;DHT22;12242;50.952;4.678;2022-10-22T06:09:27;17.10;99.90
24035;DHT22;12242;50.952;4.678;2022-10-22T06:11:57;17.10;99.90
24035;DHT22;12242;50.952;4.678;2022-10-22T06:14:27;17.10;99.90
24035;DHT22;12242;50.952;4.678;2022-10-22T06:17:00;17.20;99.90
24035;DHT22;12242;50.952;4.678;2022-10-22T06:19:27;17.20;99.90
24035;DHT22;12242;50.952;4.678;2022-10-22T06:21:57;17.20;99.90
24035;DHT22;12242;50.952;4.678;2022-10-22T06:24:24;17.20;99.90
24035;DHT22;12242;50.952;4.678;2022-10-22T06:26:53;17.20;99.90
24035;DHT22;12242;50.952;4.678;2022-10-22T06:29:21;17.30;99.90
24035;DHT22;12242;50.952;4.678;2022-10-22T06:31:48;17.20;99.90
24035;DHT22;12242;50.952;4.678;2022-10-22T06:34:16;17.20;99.90
24035;DHT22;12242;50.952;4.678;2022-10-22T06:36:45;17.20;99.90
24035;DHT22;12242;50.952;4.678;2022-10-22T06:39:16;17.10;99.90
24035;DHT22;12242;50.952;4.678;2022-10-22T06:41:46;17.10;99.90
24035;DHT22;12242;50.952;4.678;2022-10-22T06:44:15;17.10;99.90
24035;DHT22;12242;50.952;4.678;2022-10-22T06:46:43;17.10;99.90
24035;DHT22;12242;50.952;4.678;2022-10-22T06:49:15;17.10;99.90
24035;DHT22;12242;50.952;4.678;2022-10-22T06:51:43;17.00;99.90
24035;DHT22;12242;50.952;4.678;2022-10-22T06:54:11;17.00;99.90
24035;DHT22;12242;50.952;4.678;2022-10-22T06:56:40;17.10;99.90
24035;DHT22;12242;50.952;4.678;2022-10-22T06:59:08;17.10;99.90
24035;DHT22;12242;50.952;4.678;2022-10-22T07:01:37;17.10;99.90
24035;DHT22;12242;50.952;4.678;2022-10-22T07:04:09;17.10;99.90
24035;DHT22;12242;50.952;4.678;2022-10-22T07:06:39;17.10;99.90
24035;DHT22;12242;50.952;4.678;2022-10-22T07:09:06;17.10;99.90
24035;DHT22;12242;50.952;4.678;2022-10-22T07:11:43;17.10;99.90
24035;DHT22;12242;50.952;4.678;2022-10-22T07:14:11;17.10;99.90
24035;DHT22;12242;50.952;4.678;2022-10-22T07:16:39;17.10;99.90
24035;DHT22;12242;50.952;4.678;2022-10-22T07:19:12;17.20;99.90
24035;DHT22;12242;50.952;4.678;2022-10-22T07:21:42;17.20;99.90
24035;DHT22;12242;50.952;4.678;2022-10-22T07:24:09;17.40;99.90
24035;DHT22;12242;50.952;4.678;2022-10-22T07:26:40;17.40;99.90
24035;DHT22;12242;50.952;4.678;2022-10-22T07:29:07;17.40;99.90
24035;DHT22;12242;50.952;4.678;2022-10-22T07:31:38;17.40;99.90
24035;DHT22;12242;50.952;4.678;2022-10-22T07:34:08;17.40;99.90
24035;DHT22;12242;50.952;4.678;2022-10-22T07:36:35;17.40;99.90
24035;DHT22;12242;50.952;4.678;2022-10-22T07:39:03;17.50;99.90
24035;DHT22;12242;50.952;4.678;2022-10-22T07:41:30;17.60;99.90
24035;DHT22;12242;50.952;4.678;2022-10-22T07:43:58;17.70;99.90
24035;DHT22;12242;50.952;4.678;2022-10-22T07:46:26;17.70;99.90
24035;DHT22;12242;50.952;4.678;2022-10-22T07:48:54;17.80;99.90
24035;DHT22;12242;50.952;4.678;2022-10-22T07:51:21;17.90;99.90
24035;DHT22;12242;50.952;4.678;2022-10-22T07:53:48;17.90;99.90
24035;DHT22;12242;50.952;4.678;2022-10-22T07:56:16;17.80;99.90
24035;DHT22;12242;50.952;4.678;2022-10-22T07:58:44;17.90;99.90
24035;DHT22;12242;50.952;4.678;2022-10-22T08:01:13;18.00;99.90
24035;DHT22;12242;50.952;4.678;2022-10-22T08:03:44;18.00;99.90
24035;DHT22;12242;50.952;4.678;2022-10-22T08:06:12;18.00;99.90
24035;DHT22;12242;50.952;4.678;2022-10-22T08:08:43;18.10;99.90
24035;DHT22;12242;50.952;4.678;2022-10-22T08:11:12;18.10;99.90
24035;DHT22;12242;50.952;4.678;2022-10-22T08:13:42;18.20;99.90
24035;DHT22;12242;50.952;4.678;2022-10-22T08:16:12;18.30;99.90
24035;DHT22;12242;50.952;4.678;2022-10-22T08:18:39;18.40;99.90
24035;DHT22;12242;50.952;4.678;2022-10-22T08:21:10;18.50;99.90
24035;DHT22;12242;50.952;4.678;2022-10-22T08:23:40;18.50;99.90
24035;DHT22;12242;50.952;4.678;2022-10-22T08:26:10;18.60;99.90
24035;DHT22;12242;50.952;4.678;2022-10-22T08:28:39;18.70;99.90
24035;DHT22;12242;50.952;4.678;2022-10-22T08:31:08;18.60;99.90
24035;DHT22;12242;50.952;4.678;2022-10-22T08:33:38;18.60;99.90
24035;DHT22;12242;50.952;4.678;2022-10-22T08:36:06;18.70;99.90
24035;DHT22;12242;50.952;4.678;2022-10-22T08:38:33;18.60;99.90
24035;DHT22;12242;50.952;4.678;2022-10-22T08:41:11;18.60;99.90
24035;DHT22;12242;50.952;4.678;2022-10-22T08:49:20;18.40;99.90
24035;DHT22;12242;50.952;4.678;2022-10-22T08:51:49;18.30;99.90
24035;DHT22;12242;50.952;4.678;2022-10-22T08:54:24;18.30;99.90
24035;DHT22;12242;50.952;4.678;2022-10-22T09:08:06;18.20;99.90
24035;DHT22;12242;50.952;4.678;2022-10-22T09:10:37;18.20;99.90
24035;DHT22;12242;50.952;4.678;2022-10-22T09:13:09;18.10;99.90
24035;DHT22;12242;50.952;4.678;2022-10-22T09:15:40;18.20;99.90
24035;DHT22;12242;50.952;4.678;2022-10-22T09:24:01;18.70;99.90
24035;DHT22;12242;50.952;4.678;2022-10-22T09:26:36;18.90;99.90
24035;DHT22;12242;50.952;4.678;2022-10-22T09:29:05;19.50;99.90
24035;DHT22;12242;50.952;4.678;2022-10-22T09:31:35;20.50;99.90
24035;DHT22;12242;50.952;4.678;2022-10-22T09:34:03;20.70;99.90
24035;DHT22;12242;50.952;4.678;2022-10-22T09:36:34;20.70;99.90
24035;DHT22;12242;50.952;4.678;2022-10-22T09:39:01;20.60;99.90
24035;DHT22;12242;50.952;4.678;2022-10-22T09:41:30;20.30;99.90
24035;DHT22;12242;50.952;4.678;2022-10-22T09:43:57;20.10;99.90
24035;DHT22;12242;50.952;4.678;2022-10-22T09:46:37;19.80;99.90
24035;DHT22;12242;50.952;4.678;2022-10-22T09:49:13;19.60;99.90
24035;DHT22;12242;50.952;4.678;2022-10-22T09:51:57;19.30;99.90
24035;DHT22;12242;50.952;4.678;2022-10-22T09:57:16;19.10;99.90
24035;DHT22;12242;50.952;4.678;2022-10-22T09:59:49;19.30;99.90
24035;DHT22;12242;50.952;4.678;2022-10-22T10:02:22;19.70;99.90
24035;DHT22;12242;50.952;4.678;2022-10-22T10:05:05;19.90;99.90
24035;DHT22;12242;50.952;4.678;2022-10-22T10:07:38;20.00;99.90
24035;DHT22;12242;50.952;4.678;2022-10-22T10:10:18;20.00;99.90
24035;DHT22;12242;50.952;4.678;2022-10-22T10:12:55;20.20;99.90
24035;DHT22;12242;50.952;4.678;2022-10-22T10:16:04;21.30;99.90
24035;DHT22;12242;50.952;4.678;2022-10-22T10:24:20;23.10;99.90
24035;DHT22;12242;50.952;4.678;2022-10-22T10:27:04;23.40;99.90
24035;DHT22;12242;50.952;4.678;2022-10-22T10:29:42;23.70;99.90
24035;DHT22;12242;50.952;4.678;2022-10-22T10:32:33;23.50;99.90
24035;DHT22;12242;50.952;4.678;2022-10-22T10:41:23;24.40;99.90
24035;DHT22;12242;50.952;4.678;2022-10-22T10:44:02;24.40;99.90
24035;DHT22;12242;50.952;4.678;2022-10-22T10:49:29;24.90;99.90
24035;DHT22;12242;50.952;4.678;2022-10-22T10:52:27;25.30;99.90
24035;DHT22;12242;50.952;4.678;2022-10-22T10:55:24;24.90;99.10
24035;DHT22;12242;50.952;4.678;2022-10-22T11:00:54;24.60;99.10
24035;DHT22;12242;50.952;4.678;2022-10-22T11:04:33;24.00;99.50
24035;DHT22;12242;50.952;4.678;2022-10-22T11:06:27;23.60;99.90
24035;DHT22;12242;50.952;4.678;2022-10-22T11:09:03;23.30;99.90
24035;DHT22;12242;50.952;4.678;2022-10-22T11:11:43;23.60;99.90
24035;DHT22;12242;50.952;4.678;2022-10-22T11:17:15;23.80;99.90
24035;DHT22;12242;50.952;4.678;2022-10-22T11:19:50;24.60;99.90
24035;DHT22;12242;50.952;4.678;2022-10-22T11:28:00;25.60;97.70
24035;DHT22;12242;50.952;4.678;2022-10-22T11:30:41;25.50;98.10
24035;DHT22;12242;50.952;4.678;2022-10-22T11:33:15;25.60;96.70
24035;DHT22;12242;50.952;4.678;2022-10-22T11:35:45;24.90;96.80
24035;DHT22;12242;50.952;4.678;2022-10-22T11:38:17;24.40;98.00
24035;DHT22;12242;50.952;4.678;2022-10-22T11:40:51;23.90;98.20
24035;DHT22;12242;50.952;4.678;2022-10-22T11:43:31;23.40;99.50
24035;DHT22;12242;50.952;4.678;2022-10-22T11:46:24;23.10;99.90
24035;DHT22;12242;50.952;4.678;2022-10-22T11:51:41;24.00;99.90
24035;DHT22;12242;50.952;4.678;2022-10-22T11:57:17;24.30;99.80
24035;DHT22;12242;50.952;4.678;2022-10-22T11:59:58;24.80;99.90
24035;DHT22;12242;50.952;4.678;2022-10-22T12:02:43;25.10;99.20
24035;DHT22;12242;50.952;4.678;2022-10-22T12:08:21;25.00;97.20
24035;DHT22;12242;50.952;4.678;2022-10-22T12:11:19;24.60;97.20
24035;DHT22;12242;50.952;4.678;2022-10-22T12:22:15;22.70;99.90
24035;DHT22;12242;50.952;4.678;2022-10-22T12:24:46;22.50;99.90
24035;DHT22;12242;50.952;4.678;2022-10-22T12:27:33;22.40;99.90
24035;DHT22;12242;50.952;4.678;2022-10-22T12:30:09;23.10;99.90
24035;DHT22;12242;50.952;4.678;2022-10-22T12:32:44;24.00;99.90
24035;DHT22;12242;50.952;4.678;2022-10-22T12:35:18;24.70;99.90
24035;DHT22;12242;50.952;4.678;2022-10-22T12:37:49;25.40;99.60
24035;DHT22;12242;50.952;4.678;2022-10-22T12:40:20;25.60;98.20
24035;DHT22;12242;50.952;4.678;2022-10-22T12:42:54;25.60;97.20
24035;DHT22;12242;50.952;4.678;2022-10-22T12:45:28;25.60;96.40
24035;DHT22;12242;50.952;4.678;2022-10-22T12:48:01;25.10;96.20
24035;DHT22;12242;50.952;4.678;2022-10-22T12:50:45;24.80;97.30
24035;DHT22;12242;50.952;4.678;2022-10-22T12:53:18;24.70;97.40
24035;DHT22;12242;50.952;4.678;2022-10-22T12:55:49;24.40;97.30
24035;DHT22;12242;50.952;4.678;2022-10-22T12:58:20;24.10;98.20
24035;DHT22;12242;50.952;4.678;2022-10-22T13:00:52;24.00;98.40
24035;DHT22;12242;50.952;4.678;2022-10-22T13:03:47;24.20;99.70
24035;DHT22;12242;50.952;4.678;2022-10-22T13:06:25;24.50;98.30
24035;DHT22;12242;50.952;4.678;2022-10-22T13:09:13;24.80;98.50
24035;DHT22;12242;50.952;4.678;2022-10-22T13:12:03;25.30;98.60
24035;DHT22;12242;50.952;4.678;2022-10-22T13:14:33;26.20;97.50
24035;DHT22;12242;50.952;4.678;2022-10-22T13:22:33;27.10;95.60
24035;DHT22;12242;50.952;4.678;2022-10-22T13:25:24;26.90;94.00
24035;DHT22;12242;50.952;4.678;2022-10-22T13:27:58;26.90;94.50
24035;DHT22;12242;50.952;4.678;2022-10-22T13:30:34;26.80;94.50
24035;DHT22;12242;50.952;4.678;2022-10-22T13:33:06;26.90;95.00
24035;DHT22;12242;50.952;4.678;2022-10-22T13:35:37;26.90;93.80
24035;DHT22;12242;50.952;4.678;2022-10-22T13:38:25;26.70;93.50
24035;DHT22;12242;50.952;4.678;2022-10-22T13:40:56;26.70;93.90
24035;DHT22;12242;50.952;4.678;2022-10-22T13:43:26;26.50;93.10
24035;DHT22;12242;50.952;4.678;2022-10-22T13:45:57;26.20;93.70
24035;DHT22;12242;50.952;4.678;2022-10-22T13:48:25;26.10;94.40
24035;DHT22;12242;50.952;4.678;2022-10-22T13:50:54;26.20;95.00
24035;DHT22;12242;50.952;4.678;2022-10-22T13:53:24;26.10;94.10
24035;DHT22;12242;50.952;4.678;2022-10-22T13:55:54;26.10;94.10
24035;DHT22;12242;50.952;4.678;2022-10-22T13:58:23;26.10;93.90
24035;DHT22;12242;50.952;4.678;2022-10-22T14:00:53;25.90;94.30
24035;DHT22;12242;50.952;4.678;2022-10-22T14:03:28;25.70;93.70
24035;DHT22;12242;50.952;4.678;2022-10-22T14:05:56;25.10;93.40
24035;DHT22;12242;50.952;4.678;2022-10-22T14:08:24;24.80;94.60
24035;DHT22;12242;50.952;4.678;2022-10-22T14:10:55;24.60;95.60
24035;DHT22;12242;50.952;4.678;2022-10-22T14:13:25;24.30;96.20
24035;DHT22;12242;50.952;4.678;2022-10-22T14:15:55;24.00;95.70
24035;DHT22;12242;50.952;4.678;2022-10-22T14:18:24;24.00;95.50
24035;DHT22;12242;50.952;4.678;2022-10-22T14:20:55;23.80;96.30
24035;DHT22;12242;50.952;4.678;2022-10-22T14:23:26;23.70;96.90
24035;DHT22;12242;50.952;4.678;2022-10-22T14:25:55;23.90;97.20
24035;DHT22;12242;50.952;4.678;2022-10-22T14:28:23;24.10;97.10
24035;DHT22;12242;50.952;4.678;2022-10-22T14:30:51;24.20;97.20
24035;DHT22;12242;50.952;4.678;2022-10-22T14:33:27;24.20;96.30
24035;DHT22;12242;50.952;4.678;2022-10-22T14:35:59;24.10;96.10
24035;DHT22;12242;50.952;4.678;2022-10-22T14:38:27;23.90;96.00
24035;DHT22;12242;50.952;4.678;2022-10-22T14:40:56;23.70;97.00
24035;DHT22;12242;50.952;4.678;2022-10-22T14:43:29;23.60;96.80
24035;DHT22;12242;50.952;4.678;2022-10-22T14:45:59;23.40;97.10
24035;DHT22;12242;50.952;4.678;2022-10-22T14:48:27;23.40;97.60
24035;DHT22;12242;50.952;4.678;2022-10-22T14:50:54;23.40;97.40
24035;DHT22;12242;50.952;4.678;2022-10-22T14:53:24;23.40;97.80
24035;DHT22;12242;50.952;4.678;2022-10-22T14:55:51;23.40;97.60
24035;DHT22;12242;50.952;4.678;2022-10-22T14:58:21;23.40;98.30
24035;DHT22;12242;50.952;4.678;2022-10-22T15:00:51;23.50;98.30
24035;DHT22;12242;50.952;4.678;2022-10-22T15:03:19;23.60;98.30
24035;DHT22;12242;50.952;4.678;2022-10-22T15:05:50;23.60;99.00
24035;DHT22;12242;50.952;4.678;2022-10-22T15:08:19;23.70;98.80
24035;DHT22;12242;50.952;4.678;2022-10-22T15:11:07;23.60;98.40
24035;DHT22;12242;50.952;4.678;2022-10-22T15:13:34;23.50;97.70
24035;DHT22;12242;50.952;4.678;2022-10-22T15:16:05;23.30;97.90
24035;DHT22;12242;50.952;4.678;2022-10-22T15:18:33;23.20;98.20
24035;DHT22;12242;50.952;4.678;2022-10-22T15:21:04;23.10;98.50
24035;DHT22;12242;50.952;4.678;2022-10-22T15:23:32;22.80;98.40
24035;DHT22;12242;50.952;4.678;2022-10-22T15:26:05;22.70;98.50
24035;DHT22;12242;50.952;4.678;2022-10-22T15:28:38;22.60;99.00
24035;DHT22;12242;50.952;4.678;2022-10-22T15:31:10;22.40;99.40
24035;DHT22;12242;50.952;4.678;2022-10-22T15:33:38;22.40;99.90
24035;DHT22;12242;50.952;4.678;2022-10-22T15:36:12;22.40;99.90
24035;DHT22;12242;50.952;4.678;2022-10-22T15:38:39;22.40;99.90
24035;DHT22;12242;50.952;4.678;2022-10-22T15:41:09;22.40;99.90
24035;DHT22;12242;50.952;4.678;2022-10-22T15:43:40;22.40;99.90
24035;DHT22;12242;50.952;4.678;2022-10-22T15:48:40;22.40;99.90
24035;DHT22;12242;50.952;4.678;2022-10-22T15:51:18;22.30;99.90
24035;DHT22;12242;50.952;4.678;2022-10-22T15:53:54;22.30;99.90
24035;DHT22;12242;50.952;4.678;2022-10-22T15:56:23;22.20;99.90
24035;DHT22;12242;50.952;4.678;2022-10-22T15:58:55;22.30;99.90
24035;DHT22;12242;50.952;4.678;2022-10-22T16:01:24;22.20;99.90
24035;DHT22;12242;50.952;4.678;2022-10-22T16:03:54;22.20;99.90
24035;DHT22;12242;50.952;4.678;2022-10-22T16:06:32;22.10;99.90
24035;DHT22;12242;50.952;4.678;2022-10-22T16:09:01;22.10;99.90
24035;DHT22;12242;50.952;4.678;2022-10-22T16:11:32;22.00;99.90
24035;DHT22;12242;50.952;4.678;2022-10-22T16:14:00;21.90;99.90
24035;DHT22;12242;50.952;4.678;2022-10-22T16:16:29;21.80;99.90
24035;DHT22;12242;50.952;4.678;2022-10-22T16:18:58;21.80;99.90
24035;DHT22;12242;50.952;4.678;2022-10-22T16:21:25;21.70;99.90
24035;DHT22;12242;50.952;4.678;2022-10-22T16:23:53;21.50;99.90
24035;DHT22;12242;50.952;4.678;2022-10-22T16:26:23;21.40;99.90
24035;DHT22;12242;50.952;4.678;2022-10-22T16:28:53;21.30;99.90
24035;DHT22;12242;50.952;4.678;2022-10-22T16:31:22;21.30;99.90
24035;DHT22;12242;50.952;4.678;2022-10-22T16:33:52;21.20;99.90
24035;DHT22;12242;50.952;4.678;2022-10-22T16:36:20;21.10;99.90
24035;DHT22;12242;50.952;4.678;2022-10-22T16:38:48;21.00;99.90
24035;DHT22;12242;50.952;4.678;2022-10-22T16:41:23;20.90;99.90
24035;DHT22;12242;50.952;4.678;2022-10-22T16:43:53;20.80;99.90
24035;DHT22;12242;50.952;4.678;2022-10-22T16:46:21;20.50;99.90
24035;DHT22;12242;50.952;4.678;2022-10-22T16:48:51;20.50;99.90
24035;DHT22;12242;50.952;4.678;2022-10-22T16:51:23;20.50;99.90
24035;DHT22;12242;50.952;4.678;2022-10-22T16:53:53;20.60;99.90
24035;DHT22;12242;50.952;4.678;2022-10-22T16:56:21;20.60;99.90
24035;DHT22;12242;50.952;4.678;2022-10-22T16:58:54;20.60;99.90
24035;DHT22;12242;50.952;4.678;2022-10-22T17:01:25;20.50;99.90
24035;DHT22;12242;50.952;4.678;2022-10-22T17:03:53;20.50;99.90
24035;DHT22;12242;50.952;4.678;2022-10-22T17:06:22;20.40;99.90
24035;DHT22;12242;50.952;4.678;2022-10-22T17:08:50;20.40;99.90
24035;DHT22;12242;50.952;4.678;2022-10-22T17:11:20;20.30;99.90
24035;DHT22;12242;50.952;4.678;2022-10-22T17:13:52;20.30;99.90
24035;DHT22;12242;50.952;4.678;2022-10-22T17:16:22;20.30;99.90
24035;DHT22;12242;50.952;4.678;2022-10-22T17:18:51;20.20;99.90
24035;DHT22;12242;50.952;4.678;2022-10-22T17:21:19;20.10;99.90
24035;DHT22;12242;50.952;4.678;2022-10-22T17:23:47;20.00;99.90
24035;DHT22;12242;50.952;4.678;2022-10-22T17:26:21;20.00;99.90
24035;DHT22;12242;50.952;4.678;2022-10-22T17:28:49;19.90;99.90
24035;DHT22;12242;50.952;4.678;2022-10-22T17:31:20;19.90;99.90
24035;DHT22;12242;50.952;4.678;2022-10-22T17:33:49;19.90;99.90
24035;DHT22;12242;50.952;4.678;2022-10-22T17:36:17;19.90;99.90
24035;DHT22;12242;50.952;4.678;2022-10-22T17:38:53;19.90;99.90